Ah Gwah Ching, MN

9:43 AM CDT on October 24, 2014 (GMT -0500)
May Creek Lodge | Change Station
CLOSE
Current Station
Personal Weather Station
Location: Walker, MN
Elevation: 1329 ft
Nearby Weather Stations

Elev 1329 ft 47.10 °N, 94.59 °W | Updated 3 minutes ago

Clear
Clear
48.8 °F
Feels Like 49 °F
N
0.4
Wind Variable Wind from ESE
Gusts 0.4 mph

Today
High -- | Low -- °F
--% Chance of Precip.
Yesterday
High -- | Low -- °F
Precip. -- in
7:49 AM 6:14 PM
New Moon, 1% visible
Pressure 29.81 in
Visibility 10.0 miles
Clouds Clear
Windchill 49 °F
Dew Point 44 °F
Humidity 82%
Rainfall 0.00 in
Snow Depth Not available.
UV 1 out of 12
Pollen 2.00 out of 12
Air Quality Not available.
Flu Activity Sporadic
METAR KXVG 241436Z AUTO 20005KT 10SM CLR 11/07 A2981 RMK AO2 P0002

More Conditions Fewer Conditions

Pressure 29.81 in
Visibility 10.0 miles
Clouds Clear
Windchill 49 °F
Dew Point 44 °F
Humidity 82%
Rainfall 0.00 in
Snow Depth Not available.
UV 1 out of 12
Pollen 2.00 out of 12
Air Quality Not available.
Flu Activity Sporadic
METAR KXVG 241436Z AUTO 20005KT 10SM CLR 11/07 A2981 RMK AO2 P0002

More Conditions Fewer Conditions

10-Day Weather Forecast

Almanac

Astronomy

Oct. 24, 2014 Rise Set
Actual Time 7:49 AM CDT 6:14 PM CDT
Civil Twilight 7:18 AM CDT 6:46 PM CDT
Nautical Twilight 6:42 AM CDT 7:21 PM CDT
Astronomical Twilight 6:07 AM CDT 7:56 PM CDT
Moon 8:31 AM CDT 6:52 PM CDT
Length of Visible Light 11h 27m
Length of Day
10h 25m
Tomorrow will be 3m 10s shorter.
New Moon, 1% of the Moon is Illuminated
Today
New Moon
Oct 30
First Quarter
Nov 6
Full
Nov 14
Last Quarter
Nov 22
New

Today's Extremes

State Highs State Lows

Community

WunderPhotos

Upload Photos

1,764,581 photos uploaded!

WunderBlogs® & News

Nearby

Snow Depth

Station Depth Elevation
No new snow has been reported.

Earthquake Activity

City Distance Mag. Time & Date
No recent earthquake activity has been reported nearby.
Minimum magnitude displayed is 2.5.

Coastal Water Temperatures

Place Temperature
No Stations Reporting

Nearby Weather Stations